Time;durP1;ratioP1;P1;durP2;ratioP2;P2;SDS_P1;SDS_P2;PMS_P1;PMS_P2;Temp;Humidity;BMP_temperature;BMP_pressure;BME280_temperature;BME280_humidity;BME280_pressure;Samples;Min_cycle;Max_cycle;Signal;HPM_P1;HPM_P2
2024/01/01 00:00:17;;;;;;;3.58;1.00;;;;;;;-7.73;56.47;98805.03;5081314;28;20043;-62
2024/01/01 00:02:45;;;;;;;3.47;1.42;;;;;;;-8.14;56.51;98720.84;5085396;28;20052;-63
2024/01/01 00:05:11;;;;;;;2.25;1.33;;;;;;;-7.64;56.51;98806.94;5073283;28;20052;-63
2024/01/01 00:07:37;;;;;;;2.30;1.40;;;;;;;-7.55;56.56;98815.59;5075972;28;20078;-63
2024/01/01 00:10:05;;;;;;;2.67;1.48;;;;;;;-7.52;56.35;98812.25;5062739;28;20040;-63
2024/01/01 00:12:33;;;;;;;2.35;1.20;;;;;;;-7.79;56.53;98782.19;5081510;28;20071;-65
2024/01/01 00:14:59;;;;;;;2.47;1.08;;;;;;;-7.53;56.86;98826.53;5083965;28;20071;-66
2024/01/01 00:17:26;;;;;;;3.20;1.88;;;;;;;-7.50;56.77;98835.88;5083359;28;20039;-64
2024/01/01 00:19:52;;;;;;;2.67;1.20;;;;;;;-7.54;56.64;98834.09;5079615;28;20050;-63
2024/01/01 00:22:18;;;;;;;2.58;1.17;;;;;;;-7.66;56.60;98828.75;5085456;28;20039;-63
2024/01/01 00:24:44;;;;;;;2.85;1.23;;;;;;;-7.67;56.87;98839.66;5066464;28;20047;-64
2024/01/01 00:27:09;;;;;;;4.97;1.33;;;;;;;-7.68;57.03;98843.00;5082532;28;20040;-63
2024/01/01 00:29:35;;;;;;;2.15;1.17;;;;;;;-7.73;57.04;98841.22;5082712;28;20237;-65
2024/01/01 00:32:02;;;;;;;3.03;1.58;;;;;;;-7.67;57.02;98855.66;5081124;28;20058;-64
2024/01/01 00:34:28;;;;;;;2.05;1.10;;;;;;;-7.69;57.50;98853.94;5080869;28;20032;-63
2024/01/01 00:36:53;;;;;;;4.20;1.88;;;;;;;-7.78;57.06;98846.97;5086380;28;20044;-64
2024/01/01 00:39:20;;;;;;;3.15;1.50;;;;;;;-8.02;57.47;98833.75;5067482;28;20535;-63
2024/01/01 00:41:46;;;;;;;4.20;1.48;;;;;;;-7.85;57.46;98856.03;5085341;28;20097;-63
2024/01/01 00:44:12;;;;;;;3.88;1.73;;;;;;;-7.82;57.58;98866.22;5086307;28;20377;-63
2024/01/01 00:46:38;;;;;;;4.45;1.70;;;;;;;-7.82;57.79;98865.38;5070633;28;20093;-64
2024/01/01 00:49:05;;;;;;;2.47;1.08;;;;;;;-8.14;57.37;98820.03;5059952;28;20036;-64
2024/01/01 00:51:30;;;;;;;3.55;1.33;;;;;;;-7.90;57.85;98862.66;5053458;28;20068;-64
2024/01/01 00:53:57;;;;;;;4.20;1.88;;;;;;;-7.89;57.71;98878.63;5073891;28;20082;-65
2024/01/01 00:56:22;;;;;;;3.38;1.48;;;;;;;-7.94;57.86;98872.63;5085589;28;20043;-64
2024/01/01 00:58:48;;;;;;;2.80;1.48;;;;;;;-8.32;58.22;98798.59;5085515;28;20040;-65
2024/01/01 01:01:14;;;;;;;3.50;1.30;;;;;;;-7.96;57.75;98869.22;5084147;28;20043;-64
2024/01/01 01:03:40;;;;;;;2.38;1.00;;;;;;;-8.02;58.19;98876.63;5088007;28;20036;-64
2024/01/01 01:06:06;;;;;;;3.65;1.55;;;;;;;-8.05;58.21;98877.38;5087760;28;20075;-64
2024/01/01 01:08:31;;;;;;;3.28;1.40;;;;;;;-8.32;58.12;98829.66;5084570;28;20047;-65
2024/01/01 01:10:57;;;;;;;4.07;1.25;;;;;;;-8.01;57.75;98880.88;5070059;28;20470;-66
2024/01/01 01:13:23;;;;;;;3.50;1.40;;;;;;;-8.04;58.60;98873.19;5086475;28;20040;-65
2024/01/01 01:15:49;;;;;;;3.60;1.50;;;;;;;-7.97;58.08;98893.59;5073324;28;20109;-64
2024/01/01 01:18:16;;;;;;;3.08;1.65;;;;;;;-8.20;58.43;98851.78;5082380;28;20051;-64
2024/01/01 01:20:42;;;;;;;4.28;0.90;;;;;;;-7.92;58.18;98898.75;5086716;28;20430;-65
2024/01/01 01:23:08;;;;;;;3.10;1.58;;;;;;;-7.93;58.12;98902.06;5083373;28;20037;-65
2024/01/01 01:25:35;;;;;;;2.65;1.15;;;;;;;-7.85;57.84;98908.19;5084762;28;20131;-65
2024/01/01 01:28:02;;;;;;;2.20;1.10;;;;;;;-7.77;57.85;98910.09;5083040;28;20042;-64
2024/01/01 01:30:29;;;;;;;2.17;1.10;;;;;;;-7.71;58.40;98920.34;5088000;28;20035;-65
2024/01/01 01:32:55;;;;;;;2.90;1.52;;;;;;;-7.77;57.92;98917.66;5079871;28;20048;-65
2024/01/01 01:35:21;;;;;;;2.45;1.02;;;;;;;-7.66;57.93;98924.63;5069267;28;20126;-64
2024/01/01 01:37:47;;;;;;;3.40;1.50;;;;;;;-7.60;58.32;98917.22;5086763;28;20138;-64
2024/01/01 01:40:14;;;;;;;2.85;1.40;;;;;;;-7.62;57.92;98921.38;5071126;28;20044;-64
2024/01/01 01:42:44;;;;;;;1.95;1.05;;;;;;;-7.53;57.79;98924.09;5084138;28;20405;-65
2024/01/01 01:45:10;;;;;;;2.13;1.05;;;;;;;-7.51;57.79;98927.53;5086674;28;20447;-63
2024/01/01 01:47:36;;;;;;;2.60;1.33;;;;;;;-7.95;57.81;98863.34;5087373;28;20054;-66
2024/01/01 01:50:02;;;;;;;2.95;1.35;;;;;;;-7.66;58.08;98902.78;5068227;28;20497;-64
2024/01/01 01:52:30;;;;;;;3.83;1.40;;;;;;;-7.39;57.69;98941.31;5053352;28;20453;-63
2024/01/01 01:54:56;;;;;;;3.05;1.30;;;;;;;-7.40;58.04;98932.03;5067983;28;20655;-64
2024/01/01 01:57:22;;;;;;;3.63;1.58;;;;;;;-7.52;58.12;98918.25;5087246;28;20123;-63
2024/01/01 01:59:48;;;;;;;6.25;1.33;;;;;;;-7.35;58.29;98943.09;5069571;28;20554;-64
2024/01/01 02:02:14;;;;;;;3.65;1.45;;;;;;;-7.31;58.56;98954.13;5082838;28;20070;-62
2024/01/01 02:04:40;;;;;;;3.38;1.55;;;;;;;-7.29;58.72;98957.53;5068812;28;20043;-63
2024/01/01 02:07:06;;;;;;;3.15;1.02;;;;;;;-7.37;58.17;98969.97;5085633;28;20039;-63
2024/01/01 02:09:32;;;;;;;2.78;1.30;;;;;;;-7.54;57.41;98961.13;5088091;28;20032;-63
2024/01/01 02:11:59;;;;;;;2.08;1.50;;;;;;;-7.62;57.04;98966.78;5071174;28;20036;-65
2024/01/01 02:14:25;;;;;;;2.25;0.90;;;;;;;-7.68;57.42;98972.53;5068850;28;20043;-63
2024/01/01 02:16:51;;;;;;;4.18;0.90;;;;;;;-7.74;57.10;98987.50;5084853;28;20047;-63
2024/01/01 02:19:26;;;;;;;2.78;1.00;;;;;;;-7.85;56.56;98992.25;5082910;28;20048;-65
2024/01/01 02:21:53;;;;;;;1.58;0.98;;;;;;;-7.96;57.06;98996.19;5081722;28;20108;-62
2024/01/01 02:24:23;;;;;;;1.67;1.05;;;;;;;-8.00;56.67;99013.69;5083661;28;20040;-63
2024/01/01 02:26:49;;;;;;;2.08;1.02;;;;;;;-8.28;57.08;98969.22;5070452;28;20040;-64
2024/01/01 02:29:15;;;;;;;2.45;0.88;;;;;;;-8.09;56.77;99013.44;5068061;28;20032;-63
2024/01/01 02:31:41;;;;;;;1.42;0.82;;;;;;;-8.46;56.89;98968.69;5081362;28;20521;-64
2024/01/01 02:34:07;;;;;;;1.55;0.93;;;;;;;-8.22;56.86;99019.81;5080320;28;20207;-64
2024/01/01 02:36:38;;;;;;;2.15;0.80;;;;;;;-8.29;56.94;99028.84;5054983;28;20042;-64
2024/01/01 02:39:05;;;;;;;1.48;0.80;;;;;;;-8.35;57.28;99036.25;5083243;28;20048;-63
2024/01/01 02:41:35;;;;;;;3.33;1.10;;;;;;;-8.42;57.11;99039.38;5083728;28;20119;-64
2024/01/01 02:44:01;;;;;;;2.50;0.95;;;;;;;-8.69;57.41;98994.06;5067415;28;20044;-64
2024/01/01 02:46:27;;;;;;;2.20;1.00;;;;;;;-8.39;57.28;99043.69;5086717;28;20078;-63
2024/01/01 02:48:53;;;;;;;2.05;1.10;;;;;;;-8.46;57.49;99050.19;5092975;28;20033;-63
2024/01/01 02:51:19;;;;;;;2.53;1.38;;;;;;;-8.53;57.07;99045.78;5083077;28;20047;-63
2024/01/01 02:53:45;;;;;;;2.75;0.88;;;;;;;-8.56;57.77;99035.59;5083025;28;20044;-65
2024/01/01 02:56:24;;;;;;;1.65;0.98;;;;;;;-8.89;57.56;98990.09;5086286;28;20112;-63
2024/01/01 02:58:51;;;;;;;1.42;0.70;;;;;;;-8.66;57.78;99047.06;5067526;28;20044;-64
2024/01/01 03:01:18;;;;;;;1.48;0.75;;;;;;;-8.76;57.45;99040.03;5078918;28;20048;-63
2024/01/01 03:03:44;;;;;;;2.08;0.85;;;;;;;-8.81;56.99;99044.06;5065641;28;20475;-63
2024/01/01 03:06:10;;;;;;;2.53;1.17;;;;;;;-8.98;57.13;99025.06;5093716;28;20036;-60
2024/01/01 03:08:37;;;;;;;2.72;1.02;;;;;;;-8.84;57.50;99063.25;5085025;28;20097;-64
2024/01/01 03:11:04;;;;;;;2.33;0.73;;;;;;;-8.94;56.88;99067.13;5068387;28;20047;-64
2024/01/01 03:13:31;;;;;;;4.20;1.25;;;;;;;-9.00;57.12;99064.41;5085275;28;20044;-63
2024/01/01 03:15:58;;;;;;;2.50;0.80;;;;;;;-8.97;57.06;99074.59;5085268;28;20097;-63
2024/01/01 03:18:24;;;;;;;2.80;1.23;;;;;;;-9.24;57.68;99030.91;5067165;28;20077;-63
2024/01/01 03:20:50;;;;;;;2.28;0.80;;;;;;;-8.96;57.36;99068.78;5081963;28;20042;-62
2024/01/01 03:23:16;;;;;;;1.63;0.90;;;;;;;-8.94;58.03;99082.25;5085117;28;20607;-62
2024/01/01 03:25:42;;;;;;;1.80;0.77;;;;;;;-8.97;57.30;99087.19;5067319;28;20531;-63
2024/01/01 03:28:08;;;;;;;2.33;1.08;;;;;;;-9.02;57.62;99083.66;5057001;28;20447;-64
2024/01/01 03:30:34;;;;;;;7.28;1.38;;;;;;;-9.05;58.16;99093.63;5081648;28;20035;-63
2024/01/01 03:33:00;;;;;;;3.25;1.13;;;;;;;-9.04;57.46;99102.91;5083560;28;20044;-62
2024/01/01 03:35:26;;;;;;;1.15;0.80;;;;;;;-9.07;57.91;99101.16;5063238;28;20035;-64
2024/01/01 03:37:52;;;;;;;2.58;1.55;;;;;;;-9.12;58.43;99087.56;5082844;28;20542;-63
2024/01/01 03:40:18;;;;;;;1.67;0.90;;;;;;;-9.06;58.00;99100.34;5081581;28;20059;-63
2024/01/01 03:42:44;;;;;;;8.55;1.27;;;;;;;-9.07;58.12;99110.34;5079045;28;20086;-64
2024/01/01 03:45:10;;;;;;;2.28;1.27;;;;;;;-9.06;57.73;99112.06;5079151;28;20044;-64
2024/01/01 03:47:36;;;;;;;2.75;1.30;;;;;;;-9.09;58.37;99111.97;5084330;28;20059;-64
2024/01/01 03:50:02;;;;;;;2.45;1.17;;;;;;;-9.11;58.33;99123.66;5081474;28;20130;-64
2024/01/01 03:52:30;;;;;;;2.63;1.00;;;;;;;-9.13;57.72;99122.72;5069334;28;20044;-64
2024/01/01 03:54:57;;;;;;;1.25;0.68;;;;;;;-9.15;58.81;99126.84;5083240;28;20067;-63
2024/01/01 03:57:23;;;;;;;2.25;1.25;;;;;;;-9.17;58.46;99139.41;5084798;28;20055;-62
2024/01/01 03:59:50;;;;;;;7.43;1.05;;;;;;;-9.18;58.55;99140.19;5077875;28;20560;-63
2024/01/01 04:02:16;;;;;;;3.25;1.15;;;;;;;-9.21;58.12;99142.59;5078427;28;20123;-63
2024/01/01 04:04:45;;;;;;;2.25;1.15;;;;;;;-9.44;58.41;99094.00;5083182;28;20131;-62
2024/01/01 04:07:11;;;;;;;1.83;1.00;;;;;;;-9.41;59.07;99095.75;5079763;28;20040;-62
2024/01/01 04:09:37;;;;;;;4.75;1.48;;;;;;;-9.11;58.42;99136.25;5086104;28;20450;-63
2024/01/01 04:12:03;;;;;;;3.25;0.95;;;;;;;-9.16;58.33;99145.28;5086541;28;20076;-63
2024/01/01 04:14:29;;;;;;;1.45;0.70;;;;;;;-9.41;59.05;99098.28;5088612;28;20526;-63
2024/01/01 04:16:55;;;;;;;1.77;0.68;;;;;;;-9.10;58.70;99146.34;5085814;28;20412;-63
2024/01/01 04:19:24;;;;;;;0.80;0.60;;;;;;;-9.01;57.98;99150.84;5086130;28;20075;-63
2024/01/01 04:21:50;;;;;;;1.83;1.00;;;;;;;-9.06;58.27;99154.88;5087667;28;20039;-64
2024/01/01 04:24:16;;;;;;;3.30;1.10;;;;;;;-9.03;58.87;99149.94;5087524;28;20044;-63
2024/01/01 04:26:41;;;;;;;2.30;1.00;;;;;;;-8.85;58.42;99164.81;5088197;28;20108;-63
2024/01/01 04:29:07;;;;;;;4.30;1.10;;;;;;;-8.75;58.55;99162.66;5090939;28;20036;-62
2024/01/01 04:31:33;;;;;;;2.45;0.90;;;;;;;-8.73;58.17;99162.69;5075996;28;20173;-62
2024/01/01 04:33:59;;;;;;;2.38;0.90;;;;;;;-8.77;58.63;99176.84;5090204;28;20149;-63
2024/01/01 04:36:25;;;;;;;1.63;0.98;;;;;;;-8.77;58.40;99170.94;5094664;28;21036;-62
2024/01/01 04:38:51;;;;;;;2.80;1.17;;;;;;;-9.28;58.56;99100.41;5085439;28;20429;-63
2024/01/01 04:41:17;;;;;;;2.33;0.85;;;;;;;-8.78;58.23;99180.16;5086940;28;20036;-63
2024/01/01 04:43:44;;;;;;;3.58;1.10;;;;;;;-8.73;58.30;99191.25;5087523;28;20040;-62
2024/01/01 04:46:10;;;;;;;2.20;0.93;;;;;;;-9.20;58.45;99101.53;5087950;28;20043;-62
2024/01/01 04:48:36;;;;;;;2.42;1.17;;;;;;;-8.62;58.13;99200.03;5068735;28;20121;-64
2024/01/01 04:51:02;;;;;;;2.00;1.00;;;;;;;-8.96;58.25;99140.94;5082338;28;20678;-64
2024/01/01 04:53:28;;;;;;;1.20;0.80;;;;;;;-8.73;58.11;99157.66;5086157;28;20066;-63
2024/01/01 04:55:54;;;;;;;2.72;1.15;;;;;;;-8.60;57.84;99164.81;5069563;28;20039;-63
2024/01/01 04:58:20;;;;;;;2.38;1.05;;;;;;;-8.34;57.98;99209.38;5069391;28;20048;-63
2024/01/01 05:00:46;;;;;;;2.42;1.20;;;;;;;-8.32;57.80;99202.69;5085635;28;20040;-64
2024/01/01 05:03:12;;;;;;;3.72;1.27;;;;;;;-8.37;57.97;99205.91;5088711;28;20046;-65
2024/01/01 05:05:38;;;;;;;2.10;0.90;;;;;;;-8.41;57.99;99202.41;5084887;28;20039;-64
2024/01/01 05:08:04;;;;;;;3.85;1.25;;;;;;;-8.84;57.88;99132.09;5079965;28;20122;-64
2024/01/01 05:10:30;;;;;;;2.15;0.88;;;;;;;-8.29;57.67;99212.84;5088481;28;20059;-64
2024/01/01 05:12:56;;;;;;;2.60;1.20;;;;;;;-8.36;57.50;99213.47;5087256;28;20044;-64
2024/01/01 05:15:22;;;;;;;2.28;1.25;;;;;;;-8.28;57.63;99216.22;5087211;28;20071;-64
2024/01/01 05:17:48;;;;;;;1.98;0.98;;;;;;;-8.22;57.51;99224.00;5087188;28;20059;-63
2024/01/01 05:20:14;;;;;;;2.65;1.05;;;;;;;-8.17;57.77;99230.03;5066808;28;20048;-63
2024/01/01 05:22:40;;;;;;;2.17;1.15;;;;;;;-8.13;57.46;99234.38;5068934;28;20122;-62
2024/01/01 05:25:07;;;;;;;2.70;1.02;;;;;;;-8.08;57.46;99240.41;5087361;28;20050;-62
2024/01/01 05:27:33;;;;;;;2.40;1.20;;;;;;;-7.96;57.77;99243.34;5086885;28;20043;-62
2024/01/01 05:29:59;;;;;;;3.55;1.25;;;;;;;-7.88;57.31;99251.13;5087453;28;20040;-63
2024/01/01 05:32:26;;;;;;;2.53;1.20;;;;;;;-7.85;57.42;99241.16;5084659;28;20059;-64
2024/01/01 05:34:52;;;;;;;2.72;1.17;;;;;;;-7.86;57.68;99244.47;5083949;28;20044;-63
2024/01/01 05:37:18;;;;;;;1.77;1.00;;;;;;;-8.21;56.92;99203.00;5082696;28;20042;-65
2024/01/01 05:39:43;;;;;;;3.10;1.33;;;;;;;-7.89;57.27;99252.78;5086294;28;20047;-63
2024/01/01 05:42:09;;;;;;;3.58;1.05;;;;;;;-8.14;57.17;99209.97;5085885;28;20043;-63
2024/01/01 05:44:35;;;;;;;3.88;1.80;;;;;;;-7.85;57.78;99253.75;5074317;28;20051;-59
2024/01/01 05:47:01;;;;;;;3.47;1.38;;;;;;;-7.86;57.23;99241.94;5085725;28;20473;-63
2024/01/01 05:49:26;;;;;;;1.70;1.20;;;;;;;-7.90;57.31;99250.25;5056491;28;20035;-63
2024/01/01 05:51:52;;;;;;;2.13;1.10;;;;;;;-8.18;57.35;99203.97;5067179;28;20035;-63
2024/01/01 05:54:18;;;;;;;3.58;1.23;;;;;;;-7.86;57.23;99260.47;5036925;28;20461;-63
2024/01/01 05:56:44;;;;;;;3.15;1.30;;;;;;;-7.82;57.08;99248.78;5084061;28;20044;-67
2024/01/01 05:59:10;;;;;;;2.45;1.23;;;;;;;-7.79;57.03;99253.94;5083511;28;20040;-64
2024/01/01 06:01:36;;;;;;;3.83;1.20;;;;;;;-7.78;57.29;99251.47;5085006;28;20507;-64
2024/01/01 06:04:02;;;;;;;2.60;1.08;;;;;;;-7.81;57.20;99248.84;5085914;28;20074;-64
2024/01/01 06:06:28;;;;;;;3.75;1.40;;;;;;;-7.87;57.02;99248.66;5087359;28;20517;-65
2024/01/01 06:08:54;;;;;;;1.95;1.00;;;;;;;-7.91;57.25;99251.03;5084918;28;20028;-64
2024/01/01 06:11:20;;;;;;;2.97;1.38;;;;;;;-7.98;57.21;99249.97;5086164;28;20044;-64
2024/01/01 06:13:46;;;;;;;4.32;1.25;;;;;;;-8.03;57.06;99250.66;5094025;28;20123;-64
2024/01/01 06:16:15;;;;;;;2.55;1.48;;;;;;;-8.07;57.07;99251.38;5084998;28;20130;-64
2024/01/01 06:18:43;;;;;;;3.13;0.93;;;;;;;-8.30;57.46;99207.78;5086549;28;20036;-64
2024/01/01 06:21:08;;;;;;;3.08;0.93;;;;;;;-8.05;57.33;99252.25;5085352;28;20043;-64
2024/01/01 06:23:35;;;;;;;2.55;1.38;;;;;;;-8.04;57.08;99261.53;5086014;28;20036;-63
2024/01/01 06:26:02;;;;;;;7.32;1.80;;;;;;;-8.00;57.45;99256.63;5086548;28;20044;-64
2024/01/01 06:28:28;;;;;;;2.25;1.35;;;;;;;-8.26;56.88;99219.63;5084229;28;20514;-64
2024/01/01 06:30:54;;;;;;;2.55;1.42;;;;;;;-7.90;57.05;99265.38;5086269;28;20568;-64
2024/01/01 06:33:20;;;;;;;3.47;1.52;;;;;;;-7.90;57.25;99263.69;5081789;28;20078;-64
2024/01/01 06:35:46;;;;;;;1.95;0.93;;;;;;;-7.83;57.56;99268.13;5084421;28;20051;-64
2024/01/01 06:38:11;;;;;;;3.05;1.20;;;;;;;-7.80;56.84;99273.25;5081274;28;20770;-64
2024/01/01 06:40:38;;;;;;;3.75;1.50;;;;;;;-7.72;57.02;99278.53;5084506;28;20055;-65
2024/01/01 06:43:04;;;;;;;2.95;1.42;;;;;;;-7.67;56.67;99271.97;5077236;28;20036;-64
2024/01/01 06:45:29;;;;;;;1.80;1.00;;;;;;;-7.65;56.47;99272.03;5073578;28;20068;-63
2024/01/01 06:47:55;;;;;;;2.65;1.42;;;;;;;-7.80;56.73;99234.56;5069567;28;20066;-64
2024/01/01 06:50:22;;;;;;;3.33;1.27;;;;;;;-7.57;56.34;99283.22;5078217;28;20133;-64
2024/01/01 06:52:48;;;;;;;3.83;1.52;;;;;;;-7.58;56.98;99286.53;5089602;28;20209;-63
2024/01/01 06:55:17;;;;;;;3.10;1.40;;;;;;;-7.84;56.55;99247.88;5074111;28;20041;-62
2024/01/01 06:57:43;;;;;;;2.25;0.98;;;;;;;-8.16;57.02;99211.56;5068800;28;20044;-64
2024/01/01 07:00:09;;;;;;;3.00;1.45;;;;;;;-7.70;56.98;99292.09;5079452;28;20508;-64
2024/01/01 07:02:36;;;;;;;2.45;1.30;;;;;;;-7.80;57.20;99257.28;5085005;28;20032;-64
2024/01/01 07:05:02;;;;;;;1.90;1.20;;;;;;;-7.60;56.97;99294.06;5076025;28;20052;-55
2024/01/01 07:07:30;;;;;;;2.70;1.30;;;;;;;-7.63;56.99;99286.41;5074554;28;20147;-56
2024/01/01 07:09:56;;;;;;;3.92;1.75;;;;;;;-7.55;57.15;99290.03;5073157;28;20036;-49
2024/01/01 07:12:25;;;;;;;2.22;1.20;;;;;;;-7.50;56.89;99301.13;5075671;28;20096;-52
2024/01/01 07:14:51;;;;;;;5.10;1.80;;;;;;;-7.46;56.74;99307.09;5073407;28;20035;-54
2024/01/01 07:17:18;;;;;;;2.30;1.02;;;;;;;-7.42;56.70;99309.78;5081421;28;20127;-55
2024/01/01 07:19:44;;;;;;;2.25;1.30;;;;;;;-7.45;56.61;99289.50;5084094;28;20036;-54
2024/01/01 07:22:10;;;;;;;5.63;1.40;;;;;;;-7.34;56.23;99310.88;5074226;28;20493;-54
2024/01/01 07:24:36;;;;;;;5.22;1.35;;;;;;;-7.31;56.13;99308.44;5076182;28;20070;-54
2024/01/01 07:27:01;;;;;;;7.30;1.60;;;;;;;-7.19;55.84;99315.53;5073988;28;20040;-54
2024/01/01 07:29:28;;;;;;;5.93;1.45;;;;;;;-7.12;56.08;99303.94;5082109;28;20499;-54
2024/01/01 07:31:54;;;;;;;4.93;1.63;;;;;;;-7.18;55.48;99297.03;5082167;28;20039;-55
2024/01/01 07:34:20;;;;;;;4.50;1.75;;;;;;;-7.28;55.85;99269.81;5092574;28;20423;-54
2024/01/01 07:36:47;;;;;;;3.22;1.55;;;;;;;-6.96;55.25;99317.03;5064509;28;20028;-51
2024/01/01 07:39:13;;;;;;;4.88;1.88;;;;;;;-6.97;55.17;99310.28;5084808;28;20047;-56
2024/01/01 07:41:39;;;;;;;3.40;1.30;;;;;;;-6.81;55.46;99315.78;5086000;28;20419;-53
2024/01/01 07:44:07;;;;;;;4.10;1.70;;;;;;;-6.77;55.03;99272.09;5055807;28;20074;-53
2024/01/01 07:46:32;;;;;;;2.67;1.20;;;;;;;-6.61;54.93;99287.72;5080347;28;20044;-55
2024/01/01 07:49:02;;;;;;;2.95;1.45;;;;;;;-6.48;54.72;99320.09;5073685;28;20408;-55
2024/01/01 07:51:28;;;;;;;2.95;1.25;;;;;;;-6.51;54.78;99330.13;5069981;28;20139;-55
2024/01/01 07:53:53;;;;;;;2.67;1.50;;;;;;;-6.43;54.83;99331.19;5072938;28;20169;-52
2024/01/01 07:56:19;;;;;;;3.50;1.65;;;;;;;-6.38;54.51;99333.81;5081458;28;20040;-55
2024/01/01 07:58:45;;;;;;;3.70;1.42;;;;;;;-6.40;53.73;99337.16;5077687;28;20044;-58
2024/01/01 08:01:16;;;;;;;2.78;1.40;;;;;;;-6.40;53.99;99334.63;5082367;28;20044;-56
2024/01/01 08:03:41;;;;;;;2.35;1.33;;;;;;;-6.22;53.53;99341.00;5077373;28;20063;-54
2024/01/01 08:06:07;;;;;;;3.08;1.50;;;;;;;-6.08;53.14;99347.31;5072459;28;20125;-51
2024/01/01 08:08:33;;;;;;;2.30;1.30;;;;;;;-6.11;53.42;99266.25;5087457;28;20067;-53
2024/01/01 08:10:59;;;;;;;6.20;1.95;;;;;;;-5.30;52.68;99332.31;5072629;28;20567;-53
2024/01/01 08:13:25;;;;;;;3.28;1.50;;;;;;;-5.00;52.22;99337.19;5086495;28;20497;-54
2024/01/01 08:15:51;;;;;;;4.95;2.03;;;;;;;-4.78;51.84;99335.97;5066033;28;20051;-52
2024/01/01 08:18:17;;;;;;;3.00;1.55;;;;;;;-4.63;51.04;99333.75;5084903;28;20082;-56
2024/01/01 08:20:43;;;;;;;3.17;1.77;;;;;;;-4.33;50.89;99338.56;5081844;28;20047;-57
2024/01/01 08:23:10;;;;;;;3.65;1.42;;;;;;;-4.41;50.55;99338.44;5082373;28;20066;-53
2024/01/01 08:25:36;;;;;;;2.63;1.40;;;;;;;-4.35;50.63;99292.88;5080614;28;20126;-54
2024/01/01 08:28:02;;;;;;;3.17;1.42;;;;;;;-3.51;49.95;99327.34;5067778;28;20046;-56
2024/01/01 08:30:28;;;;;;;4.15;1.80;;;;;;;-3.03;49.19;99324.63;5084880;28;20032;-57
2024/01/01 08:32:54;;;;;;;4.05;1.80;;;;;;;-2.60;48.42;99338.78;5064372;28;20531;-54
2024/01/01 08:35:20;;;;;;;3.67;1.88;;;;;;;-2.69;47.79;99325.94;5071728;28;20041;-55
2024/01/01 08:37:47;;;;;;;3.53;1.60;;;;;;;-2.21;47.50;99301.06;5076725;28;20060;-52
2024/01/01 08:40:13;;;;;;;3.50;1.52;;;;;;;-2.02;46.41;99304.63;5075794;28;20047;-53
2024/01/01 08:42:39;;;;;;;3.67;1.90;;;;;;;-1.95;45.95;99331.88;5073594;28;20123;-53
2024/01/01 08:45:06;;;;;;;3.42;1.88;;;;;;;-2.32;46.06;99338.28;5069262;28;20037;-54
2024/01/01 08:47:32;;;;;;;4.60;1.83;;;;;;;-1.61;45.34;99338.13;5082789;28;20059;-56
2024/01/01 08:49:57;;;;;;;4.45;1.65;;;;;;;-1.17;44.41;99332.53;5070003;28;20450;-56
2024/01/01 08:52:23;;;;;;;3.90;1.83;;;;;;;-0.88;43.59;99336.97;5075241;28;20161;-57
2024/01/01 08:54:49;;;;;;;4.20;1.80;;;;;;;-0.83;43.55;99329.31;5084966;28;20039;-55
2024/01/01 08:57:15;;;;;;;3.28;1.55;;;;;;;-0.42;42.98;99332.91;5086732;28;20039;-54
2024/01/01 08:59:41;;;;;;;4.22;1.52;;;;;;;-0.09;41.90;99341.53;5084714;28;20047;-55
2024/01/01 09:02:08;;;;;;;3.95;1.85;;;;;;;-0.34;42.04;99334.66;5085159;28;20045;-54
2024/01/01 09:04:34;;;;;;;3.15;1.75;;;;;;;0.19;41.68;99320.31;5077986;28;20503;-58
2024/01/01 09:07:01;;;;;;;3.40;1.65;;;;;;;1.12;40.65;99333.91;5073193;28;20044;-58
2024/01/01 09:09:27;;;;;;;3.60;1.60;;;;;;;0.90;40.02;99339.91;5080988;28;20440;-57
2024/01/01 09:11:53;;;;;;;3.75;1.63;;;;;;;0.68;40.33;99340.81;5085225;28;20048;-59
2024/01/01 09:14:19;;;;;;;5.05;2.22;;;;;;;0.76;39.57;99336.53;5072748;28;20052;-60
2024/01/01 09:16:46;;;;;;;3.63;1.73;;;;;;;1.03;39.06;99307.50;5074541;28;20074;-58
2024/01/01 09:19:12;;;;;;;4.22;2.42;;;;;;;1.34;38.49;99351.78;5067869;28;20044;-56
2024/01/01 09:21:38;;;;;;;3.92;1.70;;;;;;;2.09;37.91;99354.00;5076741;28;20044;-58
2024/01/01 09:24:07;;;;;;;6.05;2.05;;;;;;;2.94;36.72;99344.81;5071897;28;20122;-58
2024/01/01 09:26:34;;;;;;;4.40;1.88;;;;;;;3.54;36.30;99347.63;5085166;28;20054;-59
2024/01/01 09:29:00;;;;;;;3.85;1.75;;;;;;;3.86;35.92;99355.81;5073093;28;20174;-57
2024/01/01 09:31:26;;;;;;;3.83;1.70;;;;;;;4.39;34.78;99354.25;5074964;28;20032;-53
2024/01/01 09:33:53;;;;;;;3.15;1.67;;;;;;;4.68;34.49;99354.63;5078822;28;20085;-57
2024/01/01 09:36:19;;;;;;;3.70;2.03;;;;;;;4.46;33.74;99363.56;5083475;28;20502;-58
2024/01/01 09:38:45;;;;;;;3.40;1.92;;;;;;;4.35;34.33;99357.72;5071206;28;20040;-63
2024/01/01 09:41:11;;;;;;;3.45;1.90;;;;;;;4.93;33.82;99362.81;5093184;28;20040;-65
2024/01/01 09:43:37;;;;;;;3.90;2.10;;;;;;;5.09;32.79;99315.28;5086730;28;20051;-59
2024/01/01 09:46:04;;;;;;;2.35;1.65;;;;;;;5.17;31.79;99357.25;5082040;28;20039;-63
2024/01/01 09:48:30;;;;;;;3.85;2.33;;;;;;;4.67;32.33;99360.66;5074699;28;20080;-58
2024/01/01 09:51:02;;;;;;;3.28;2.00;;;;;;;4.54;31.80;99354.88;5080975;28;20431;-61
2024/01/01 09:53:33;;;;;;;4.78;2.40;;;;;;;4.73;31.43;99346.84;5085287;28;20142;-63
2024/01/01 09:55:59;;;;;;;4.90;2.55;;;;;;;3.72;31.90;99363.69;5073920;28;20048;-55
2024/01/01 09:58:25;;;;;;;3.95;2.28;;;;;;;2.13;33.23;99358.28;5070310;28;20561;-63
2024/01/01 10:00:51;;;;;;;4.78;2.53;;;;;;;0.87;34.22;99368.06;5074640;28;20094;-62
2024/01/01 10:03:17;;;;;;;5.43;2.17;;;;;;;-0.15;35.77;99370.47;5074612;28;20040;-60
2024/01/01 10:05:44;;;;;;;5.30;2.50;;;;;;;-0.89;36.27;99373.53;5077727;28;20127;-61
2024/01/01 10:08:11;;;;;;;4.30;2.00;;;;;;;-1.60;36.96;99370.44;5073868;28;20068;-58
2024/01/01 10:10:38;;;;;;;6.28;2.42;;;;;;;-2.34;37.78;99334.00;5078115;28;20535;-60
2024/01/01 10:13:08;;;;;;;5.18;2.17;;;;;;;-2.62;38.26;99363.38;5078162;28;20059;-61
2024/01/01 10:15:36;;;;;;;2.95;1.65;;;;;;;-2.99;39.01;99359.47;5092878;28;20102;-65
2024/01/01 10:18:16;;;;;;;4.22;1.80;;;;;;;-3.22;39.61;99364.19;5077739;28;20078;-63
2024/01/01 10:20:43;;;;;;;5.97;2.70;;;;;;;-3.42;39.92;99357.97;5076327;28;20504;-60
2024/01/01 10:23:25;;;;;;;4.80;2.08;;;;;;;-3.63;40.28;99347.44;5075268;28;20063;-61
2024/01/01 10:26:07;;;;;;;5.95;1.70;;;;;;;-3.81;40.82;99357.28;5083580;28;20642;-58
2024/01/01 10:28:33;;;;;;;5.93;2.42;;;;;;;-4.17;41.02;99312.66;5081928;28;20082;-61
2024/01/01 10:31:01;;;;;;;7.63;2.60;;;;;;;-4.45;41.33;99290.16;5088770;28;20541;-63
2024/01/01 10:33:32;;;;;;;5.18;1.98;;;;;;;-4.17;41.13;99347.31;5074869;28;20195;-61
2024/01/01 10:35:59;;;;;;;2.20;1.70;;;;;;;-4.49;41.60;99326.41;5077016;28;20036;-61
2024/01/01 10:38:25;;;;;;;3.88;2.03;;;;;;;-4.52;42.10;99351.72;5082687;28;20040;-61
2024/01/01 10:40:55;;;;;;;5.60;2.15;;;;;;;-4.63;42.43;99358.25;5085783;28;20065;-62
2024/01/01 10:43:27;;;;;;;4.18;1.95;;;;;;;-5.17;42.82;99281.06;5083372;28;20047;-60
2024/01/01 10:46:01;;;;;;;3.33;1.67;;;;;;;-4.80;42.82;99356.22;5067539;28;20068;-62
2024/01/01 10:48:27;;;;;;;3.85;1.90;;;;;;;-4.95;43.30;99350.81;5084449;28;20048;-59
2024/01/01 10:51:21;;;;;;;6.07;2.15;;;;;;;-4.97;43.76;99361.75;5088273;28;20106;-61
2024/01/01 10:54:11;;;;;;;6.50;1.77;;;;;;;-4.40;43.33;99362.97;5083798;28;20105;-61
2024/01/01 10:56:56;;;;;;;5.05;2.17;;;;;;;-3.18;42.49;99365.94;5081902;28;20721;-61
2024/01/01 10:59:26;;;;;;;4.45;2.05;;;;;;;-2.30;41.22;99367.13;5083738;28;20040;-61
2024/01/01 11:01:52;;;;;;;4.53;1.95;;;;;;;-1.46;39.90;99315.31;5064939;28;20427;-59
2024/01/01 11:04:19;;;;;;;5.32;2.30;;;;;;;-0.18;39.04;99367.94;5081897;28;20052;-63
2024/01/01 11:06:46;;;;;;;5.30;1.77;;;;;;;0.41;38.28;99362.09;5080008;28;20118;-63
2024/01/01 11:09:23;;;;;;;5.90;2.50;;;;;;;-0.12;38.18;99360.28;5083677;28;20131;-62
2024/01/01 11:11:50;;;;;;;5.97;2.30;;;;;;;-1.24;39.21;99372.44;5080036;28;20047;-60
2024/01/01 11:14:24;;;;;;;5.18;2.38;;;;;;;-2.04;40.05;99369.97;5086171;28;20347;-59
2024/01/01 11:16:54;;;;;;;4.95;2.05;;;;;;;-2.66;40.69;99370.09;5081458;28;20504;-59
2024/01/01 11:19:42;;;;;;;9.18;2.75;;;;;;;-3.22;41.66;99365.88;5084225;28;20040;-63
2024/01/01 11:22:25;;;;;;;4.75;1.95;;;;;;;-3.63;41.81;99370.31;5080380;28;20134;-62
2024/01/01 11:24:54;;;;;;;6.32;2.53;;;;;;;-3.82;42.19;99369.13;5080068;28;20048;-59
2024/01/01 11:27:31;;;;;;;11.48;2.50;;;;;;;-3.89;42.48;99369.84;5087363;28;20466;-59
2024/01/01 11:30:04;;;;;;;6.15;2.05;;;;;;;-3.89;43.00;99364.78;5080781;28;20048;-63
2024/01/01 11:32:34;;;;;;;4.63;1.70;;;;;;;-3.99;42.73;99360.38;5083420;28;20707;-62